• Join FlightAware (Why Join?)
  • Login
  • US Flag 
09:54AM EST


 

Airport Tracker/Info


-or-


 

Live Flight TrackerFlight Track Log ✈ ASQ4179 ✈ 03-Jul-2013 ✈ KCLT - KIAH

Flight Track Log - Related Links

Times and Time Zones

All times are in EDT time to prevent confusion due to time zone crossing. See the ASQ4179 flight status page for this flight to view local times or setup timezone preferences in your user account.

Time Position Orientation Groundspeed Altitude Reporting Facility
EDT Latitude Longitude Course Direction KTS MPH feet Rate Location/Type
12:20PM 35.1892 -80.9508 270° West 158 182 1,400  Level Atlanta Center
12:21PM 35.1231 -80.9739 196° South 233 268 3,200 1,680 Climbing Atlanta Center
12:22PM 35.2605 -81.1798 282° West  Level FlightAware Approximate
12:22PM 35.1247 -81.0525 272° West 273 314 5,200  Level Atlanta Center
12:23PM 35.2333 -81.2946 242° Southwest  Level FlightAware Approximate
12:23PM 35.1311 -81.1361 275° West 272 313 7,100  Level Atlanta Center
12:23PM 35.1322 -81.1842 272° West 270 311 8,100 1,920 Climbing Atlanta Center
12:24PM 35.1818 -81.4031 239° Southwest  Level FlightAware Approximate
12:24PM 35.1361 -81.2653 273° West 276 318 10,100  Level Atlanta Center
12:25PM 35.1333 -81.5118 270° West  Level FlightAware Approximate
12:25PM 35.1406 -81.3744 273° West 295 339 10,800  Level Atlanta Center
12:26PM 35.1472 -81.4886 274° West 335 386 12,500 1,620 Climbing Atlanta Center
12:27PM 35.1414 -81.6081 267° West 351 404 14,100 1,620 Climbing Atlanta Center
12:28PM 35.1331 -81.7278 265° West 351 404 15,800 1,560 Climbing Atlanta Center
12:29PM 35.1231 -81.8600 265° West 351 404 17,300 1,320 Climbing Atlanta Center
12:30PM 35.1106 -81.9797 263° West 351 404 18,500 1,200 Climbing Atlanta Center
12:31PM 35.1042 -82.0967 266° West 351 404 19,800 1,200 Climbing Atlanta Center
12:32PM 35.0956 -82.2136 265° West 351 404 21,000 1,200 Climbing Atlanta Center
12:33PM 35.1033 -82.3278 275° West 351 404 22,200 1,260 Climbing Atlanta Center
12:34PM 35.1319 -82.4361 288° West 346 398 23,600 1,500 Climbing Atlanta Center
12:35PM 35.1583 -82.5475 286° West 346 398 25,300 1,800 Climbing Atlanta Center
12:36PM 35.1869 -82.6589 287° West 346 398 27,200 1,800 Climbing Atlanta Center
12:37PM 35.2131 -82.7600 288° West 332 382 28,900 900 Climbing Atlanta Center
12:38PM 35.2369 -82.8589 287° West 313 360 29,000 240 Climbing Atlanta Center
12:39PM 35.2003 -82.9611 246° West 306 352 29,400 480 Climbing Atlanta Center
12:40PM 35.1719 -83.0733 253° West 325 374 30,000 300 Climbing Atlanta Center
12:41PM 35.1458 -83.1956 255° West 354 407 30,000 600 Level Atlanta Center
12:42PM 35.1217 -83.3200 257° West 374 430 31,300 1,440 Climbing Atlanta Center
12:43PM 35.0992 -83.4372 257° West 373 429 32,900 1,260 Climbing Atlanta Center
12:44PM 35.0725 -83.5567 255° West 368 423 33,900 900 Climbing Atlanta Center
12:45PM 35.0481 -83.6683 255° West 362 417 34,700 660 Climbing Atlanta Center
12:46PM 35.0275 -83.7700 256° West 351 404 35,300 540 Climbing Atlanta Center
12:47PM 35.0006 -83.8842 254° West 351 404 35,800 300 Climbing Atlanta Center
12:48PM 34.9775 -84.0033 257° West 351 404 36,000 60 Climbing Atlanta Center
12:49PM 34.9506 -84.1300 255° West 371 427 36,000  Level Atlanta Center
12:50PM 34.9231 -84.2667 256° West 377 434 36,000  Level Atlanta Center
12:51PM 34.8978 -84.3883 256° West 394 453 36,000  Level Atlanta Center
12:52PM 34.8681 -84.5275 255° West 408 470 36,000  Level Atlanta Center
12:53PM 34.8342 -84.6664 253° West 423 487 36,000  Level Atlanta Center
12:54PM 34.8042 -84.8028 255° West 423 487 36,000  Level Atlanta Center
12:55PM 34.7761 -84.9442 256° West 423 487 36,000  Level Atlanta Center
12:56PM 34.7458 -85.0778 255° West 423 487 36,000  Level Atlanta Center
12:57PM 34.7133 -85.2164 254° West 423 487 36,000  Level Atlanta Center
12:58PM 34.6825 -85.3522 255° West 423 487 36,000  Level Atlanta Center
12:59PM 34.6519 -85.4881 255° West 418 481 36,000  Level Atlanta Center
01:00PM 34.6208 -85.6264 255° West 418 481 36,000  Level Atlanta Center
01:01PM 34.5919 -85.7647 256° West 418 481 36,000  Level Atlanta Center
01:02PM 34.5608 -85.8953 254° West 413 475 36,000  Level Atlanta Center
01:03PM 34.5294 -86.0306 254° West 413 475 36,000  Level Atlanta Center
01:04PM 34.5000 -86.1661 255° West 413 475 36,000  Level Atlanta Center
01:05PM 34.4686 -86.2989 254° West 413 475 36,000  Level Atlanta Center
01:06PM 34.4369 -86.4314 254° West 413 475 36,000  Level Atlanta Center
01:07PM 34.4050 -86.5639 254° West 413 475 36,000  Level Atlanta Center
01:09PM 34.3547 -86.7722 254° West 417 480 36,000  Level Memphis Center
01:10PM 34.3192 -86.9219 254° West 422 486 36,000  Level Memphis Center
01:11PM 34.2875 -87.0589 254° West 422 486 36,000  Level Memphis Center
01:12PM 34.2556 -87.1933 254° West 422 486 36,000  Level Memphis Center
01:13PM 34.2250 -87.3125 253° West 398 458 36,000  Level Memphis Center
01:14PM 34.1944 -87.4342 253° West 398 458 36,000  Level Memphis Center
01:15PM 34.1642 -87.5633 254° West 406 467 36,000  Level Memphis Center
01:16PM 34.1317 -87.6972 254° West 411 473 36,000  Level Memphis Center
01:17PM 34.0969 -87.8289 252° West 411 473 36,000  Level Memphis Center
01:18PM 34.0639 -87.9600 253° West 416 479 36,000  Level Memphis Center
01:19PM 34.0331 -88.0889 254° West 416 479 36,000  Level Memphis Center
01:20PM 33.9958 -88.2375 253° West 416 479 36,000  Level Memphis Center
01:21PM 33.9625 -88.3686 253° West 416 479 36,000  Level Memphis Center
01:22PM 33.9292 -88.4972 253° West 416 479 36,000  Level Memphis Center
01:23PM 33.8956 -88.6256 253° West 411 473 36,000  Level Memphis Center
01:24PM 33.8639 -88.7536 253° West 406 467 36,000  Level Memphis Center
01:25PM 33.8319 -88.8767 253° West 389 448 36,000  Level Memphis Center
01:26PM 33.8042 -88.9972 255° West 394 453 36,000  Level Memphis Center
01:27PM 33.7681 -89.1403 253° West 404 465 36,000  Level Memphis Center
01:28PM 33.7339 -89.2656 252° West 404 465 36,000  Level Memphis Center
01:29PM 33.7014 -89.3958 253° West 404 465 36,000  Level Memphis Center
01:30PM 33.6669 -89.5236 252° West 404 465 36,000  Level Memphis Center
01:31PM 33.6342 -89.6511 253° West 404 465 36,000  Level Memphis Center
01:32PM 33.5994 -89.7786 252° West 404 465 36,000  Level Memphis Center
01:33PM 33.5667 -89.9036 253° West 404 465 36,000  Level Memphis Center
01:34PM 33.5314 -90.0283 251° West 404 465 36,000  Level Memphis Center
01:35PM 33.4983 -90.1531 252° West 404 465 36,000  Level Memphis Center
01:36PM 33.4608 -90.2775 250° West 404 465 36,000  Level Memphis Center
01:37PM 33.4025 -90.3847 237° Southwest 393 452 36,000  Level Memphis Center
01:38PM 33.3442 -90.4767 233° Southwest 388 447 36,000  Level Memphis Center
01:39PM 33.2814 -90.5808 234° Southwest 393 452 36,000  Level Memphis Center
01:40PM 33.2183 -90.6825 233° Southwest 393 452 36,000  Level Memphis Center
01:41PM 33.1556 -90.7842 234° Southwest 387 445 36,000  Level Memphis Center
01:42PM 33.0947 -90.8856 234° Southwest 387 445 36,000  Level Memphis Center
01:43PM 33.0314 -90.9892 234° Southwest 387 445 36,000  Level Memphis Center
01:44PM 32.9683 -91.0928 234° Southwest 387 445 36,000  Level Memphis Center
01:46PM 32.8236 -91.3253 234° Southwest 369 425 36,000  Level Fort Worth Center
01:47PM 32.7619 -91.4306 235° Southwest 379 436 36,000  Level Fort Worth Center
01:48PM 32.7000 -91.5286 233° Southwest 379 436 36,000  Level Fort Worth Center
01:49PM 32.6378 -91.6289 234° Southwest 379 436 36,000  Level Fort Worth Center
01:50PM 32.5736 -91.7314 233° Southwest 379 436 36,000  Level Fort Worth Center
01:51PM 32.5114 -91.8339 234° Southwest 379 436 36,000  Level Fort Worth Center
01:53PM 32.3658 -92.0600 233° Southwest 383 441 36,000  Level Houston Center
01:54PM 32.3000 -92.1589 232° Southwest 382 440 36,000  Level Houston Center
01:55PM 32.2233 -92.2833 234° Southwest 389 448 36,000  Level Houston Center
01:56PM 32.1589 -92.3897 234° Southwest 396 456 36,000  Level Houston Center
01:57PM 32.0919 -92.4942 233° Southwest 399 459 36,000  Level Houston Center
01:59PM 32.0247 -92.5986 233° Southwest 400 460 36,000  Level Houston Center
02:00PM 31.9547 -92.7003 231° Southwest 400 460 36,000 -60 Level Houston Center
02:01PM 31.8681 -92.7817 219° Southwest 398 458 35,900  Descending Houston Center
02:02PM 31.7667 -92.8792 219° Southwest 394 453 36,000  Climbing Houston Center
02:03PM 31.6811 -92.9597 219° Southwest 394 453 36,000  Level Houston Center
02:04PM 31.5967 -93.0417 220° Southwest 394 453 36,000 -60 Level Houston Center
02:05PM 31.5100 -93.1253 219° Southwest 400 460 35,900  Descending Houston Center
02:06PM 31.4233 -93.2086 219° Southwest 403 464 36,000  Climbing Houston Center
02:07PM 31.3261 -93.3006 219° Southwest 400 460 36,000 -60 Level Houston Center
02:08PM 31.2333 -93.3883 219° Southwest 402 463 35,900  Descending Houston Center
02:09PM 31.1483 -93.4694 219° Southwest 399 459 36,000  Climbing Houston Center
02:10PM 31.0622 -93.5500 219° Southwest 398 458 35,900 -1,020 Descending Houston Center
02:11PM 30.9772 -93.6322 220° Southwest 399 459 34,000 -2,160 Descending Houston Center
02:12PM 30.8919 -93.7119 219° Southwest 396 456 31,500 -2,640 Descending Houston Center
02:13PM 30.7906 -93.8089 219° Southwest 396 456 28,600 -2,640 Descending Houston Center
02:14PM 30.7008 -93.8939 219° Southwest 416 479 26,000 -2,700 Descending Houston Center
02:15PM 30.6064 -93.9817 219° Southwest 434 499 23,100 -2,880 Descending Houston Center
02:16PM 30.5169 -94.0650 219° Southwest 419 482 20,100 -3,120 Descending Houston Center
02:17PM 30.4169 -94.1586 219° Southwest 393 452 16,700 -3,240 Descending Houston Center
02:18PM 30.3344 -94.2367 219° Southwest 386 444 13,500 -2,280 Descending Houston Center
02:19PM 30.2636 -94.3183 225° Southwest 369 425 12,100 -960 Descending Houston Center
02:20PM 30.2211 -94.4108 242° Southwest 331 381 11,500 -1,200 Descending Houston Center
02:21PM 30.1817 -94.4958 242° Southwest 289 333 9,700 -1,680 Descending Houston Center
02:22PM 30.1517 -94.5756 246° West 273 314 8,100 -720 Descending Houston Center
02:24PM 30.1164 -94.7089 253° West 280 322 8,000 -60 Descending Houston Center
02:24PM 30.1006 -94.7628 251° West 280 322 8,000  Level Houston Center
02:25PM 30.0769 -94.8456 252° West 273 314 8,000 -360 Level Houston Center
02:26PM 30.0553 -94.9194 251° West 245 282 7,300 -900 Descending Houston Center
02:28PM 30.0347 -94.9906 252° West 235 270 6,200 -1,200 Descending Houston Center
02:29PM 30.0158 -95.0614 253° West 233 268 4,800 -1,440 Descending Houston Center
02:30PM 29.9942 -95.1453 253° West 230 265 3,300 -1,500 Descending Houston Center